createdAt,value
2018-07-23T00:02:36.821Z,14.43
2018-07-23T00:07:31.325Z,14.40
2018-07-23T00:12:25.829Z,15.70
2018-07-23T00:17:20.347Z,15.17
2018-07-23T00:22:14.783Z,15.23
2018-07-23T00:27:09.435Z,15.70
2018-07-23T00:32:03.990Z,13.47
2018-07-23T00:36:58.511Z,12.57
2018-07-23T00:41:53.037Z,12.27
2018-07-23T00:46:47.554Z,11.47
2018-07-23T00:51:42.128Z,10.93
2018-07-23T00:56:36.607Z,11.23
2018-07-23T01:01:31.086Z,12.37
2018-07-23T01:06:25.593Z,12.03
2018-07-23T01:11:20.149Z,11.90
2018-07-23T01:16:14.695Z,13.00
2018-07-23T01:21:09.279Z,13.47
2018-07-23T01:26:03.801Z,15.37
2018-07-23T01:30:58.304Z,16.20
2018-07-23T01:35:52.798Z,18.60
2018-07-23T01:40:47.308Z,17.83
2018-07-23T01:45:41.821Z,19.03
2018-07-23T01:50:36.320Z,19.70
2018-07-23T01:55:31.788Z,19.07
2018-07-23T02:00:26.370Z,19.97
2018-07-23T02:05:20.889Z,18.60
2018-07-23T02:10:15.412Z,17.93
2018-07-23T02:15:09.934Z,18.77
2018-07-23T02:20:05.074Z,20.07
2018-07-23T02:24:59.668Z,19.50
2018-07-23T02:29:54.125Z,19.40
2018-07-23T02:34:48.681Z,19.53
2018-07-23T02:39:43.197Z,21.27
2018-07-23T02:44:37.729Z,19.10
2018-07-23T02:49:32.246Z,20.07
2018-07-23T02:54:26.783Z,20.73
2018-07-23T02:59:21.973Z,21.40
2018-07-23T03:04:16.506Z,18.87
2018-07-23T03:09:11.044Z,18.97
2018-07-23T03:14:05.638Z,22.70
2018-07-23T03:19:00.149Z,18.60
2018-07-23T03:23:54.661Z,21.77
2018-07-23T03:28:49.324Z,19.80
2018-07-23T03:33:43.946Z,21.27
2018-07-23T03:38:38.440Z,23.63
2018-07-23T03:43:32.929Z,25.93
2018-07-23T03:48:27.508Z,26.53
2018-07-23T03:53:22.020Z,26.93
2018-07-23T03:58:16.661Z,25.87
2018-07-23T04:03:11.253Z,24.33
2018-07-23T04:08:05.913Z,23.80
2018-07-23T04:13:00.437Z,24.73
2018-07-23T04:18:01.806Z,23.70
2018-07-23T04:22:56.086Z,24.37
2018-07-23T04:27:50.641Z,23.67
2018-07-23T04:32:45.209Z,20.93
2018-07-23T04:37:39.768Z,23.47
2018-07-23T04:42:34.317Z,26.33
2018-07-23T04:47:28.945Z,24.33
2018-07-23T04:52:23.481Z,23.67
2018-07-23T04:57:18.096Z,21.23
2018-07-23T05:02:12.720Z,22.13
2018-07-23T05:07:07.344Z,24.07
2018-07-23T05:12:01.953Z,22.37
2018-07-23T05:16:56.540Z,22.13
2018-07-23T05:21:51.129Z,24.43
2018-07-23T05:26:45.710Z,23.63
2018-07-23T05:31:40.291Z,16.53
2018-07-23T05:36:34.723Z,15.43
2018-07-23T05:41:29.156Z,19.00
2018-07-23T05:46:23.597Z,17.13
2018-07-23T05:51:18.145Z,17.73
2018-07-23T05:56:12.581Z,15.20
2018-07-23T06:01:07.101Z,15.43
2018-07-23T06:06:01.589Z,14.77
2018-07-23T06:10:56.033Z,20.90
2018-07-23T06:15:50.497Z,16.40
2018-07-23T06:20:44.964Z,17.03
2018-07-23T06:25:39.470Z,19.17
2018-07-23T06:30:33.957Z,14.60
2018-07-23T06:35:28.484Z,13.33
2018-07-23T06:40:22.995Z,16.85
2018-07-23T06:45:17.521Z,16.50
2018-07-23T06:50:12.449Z,13.83
2018-07-23T06:55:06.640Z,13.00
2018-07-23T07:00:01.106Z,11.93
2018-07-23T07:04:55.766Z,11.23
2018-07-23T07:09:50.043Z,12.30
2018-07-23T07:14:44.754Z,11.73
2018-07-23T07:19:39.647Z,13.33
2018-07-23T07:24:35.285Z,13.67
2018-07-23T07:29:30.097Z,12.87
2018-07-23T07:34:24.794Z,12.50
2018-07-23T07:39:19.405Z,13.48
2018-07-23T07:44:13.922Z,13.57
2018-07-23T07:49:08.945Z,11.03
2018-07-23T07:54:04.914Z,13.20
2018-07-23T07:58:59.557Z,14.67
2018-07-23T08:03:53.991Z,13.93
2018-07-23T08:08:48.511Z,14.20
2018-07-23T08:13:43.081Z,14.15
2018-07-23T08:18:37.669Z,16.65
2018-07-23T08:23:32.323Z,14.93
2018-07-23T08:28:26.909Z,28.65
2018-07-23T08:33:21.715Z,26.20
2018-07-23T08:38:16.213Z,19.23
2018-07-23T08:43:10.797Z,21.42
2018-07-23T08:48:05.272Z,21.77
2018-07-23T08:53:00.538Z,23.52
2018-07-23T08:57:56.285Z,18.60
2018-07-23T09:02:50.944Z,19.15
2018-07-23T09:07:48.956Z,18.25
2018-07-23T09:12:43.432Z,16.10
2018-07-23T09:17:38.321Z,17.62
2018-07-23T09:22:33.475Z,23.67
2018-07-23T09:27:28.065Z,21.57
2018-07-23T09:32:22.495Z,15.60
2018-07-23T09:37:18.508Z,17.85
2018-07-23T09:42:13.077Z,21.80
2018-07-23T09:47:08.648Z,13.40
2018-07-23T09:52:03.251Z,16.17
2018-07-23T09:56:57.518Z,13.90
2018-07-23T10:01:51.983Z,13.68
2018-07-23T10:06:47.312Z,14.35
2018-07-23T10:11:41.753Z,11.03
2018-07-23T10:16:36.452Z,12.18
2018-07-23T10:21:31.000Z,12.58
2018-07-23T10:26:25.781Z,14.30
2018-07-23T10:31:22.482Z,13.65
2018-07-23T10:36:16.937Z,12.37
2018-07-23T10:41:11.588Z,10.15
2018-07-23T10:46:06.551Z,10.78
2018-07-23T10:51:01.447Z,10.78
2018-07-23T10:55:55.920Z,9.25
2018-07-23T11:00:50.407Z,8.38
2018-07-23T11:05:44.889Z,8.13
2018-07-23T11:10:39.969Z,7.47
2018-07-23T11:15:34.522Z,16.37
2018-07-23T11:20:28.707Z,9.08
2018-07-23T11:25:38.979Z,6.92
2018-07-23T11:30:24.917Z,7.70
2018-07-23T11:35:19.377Z,6.30
2018-07-23T11:40:15.242Z,8.80
2018-07-23T11:45:09.788Z,6.90
2018-07-23T11:50:04.292Z,9.58
2018-07-23T11:54:58.726Z,6.92
2018-07-23T11:59:53.237Z,6.10
2018-07-23T12:04:48.586Z,9.03
2018-07-23T12:09:45.318Z,6.00
2018-07-23T12:14:40.461Z,9.23
2018-07-23T12:19:34.926Z,6.50
2018-07-23T12:24:29.745Z,9.88
2018-07-23T12:29:25.194Z,6.60
2018-07-23T12:34:19.788Z,7.08
2018-07-23T12:39:14.288Z,6.50
2018-07-23T12:44:08.842Z,7.87
2018-07-23T12:49:03.329Z,5.78
2018-07-23T12:53:57.775Z,5.90
2018-07-23T12:58:52.232Z,7.35
2018-07-23T13:03:46.360Z,7.53
2018-07-23T13:08:41.005Z,6.95
2018-07-23T13:13:35.510Z,8.30
2018-07-23T13:18:30.052Z,6.62
2018-07-23T13:23:24.512Z,8.43
2018-07-23T13:28:19.049Z,7.12
2018-07-23T13:33:13.497Z,9.60
2018-07-23T13:38:08.015Z,8.75
2018-07-23T13:43:02.510Z,9.10
2018-07-23T13:47:56.980Z,8.73
2018-07-23T13:52:51.454Z,8.83
2018-07-23T13:57:45.917Z,9.53
2018-07-23T14:02:40.425Z,8.33
2018-07-23T14:07:34.893Z,8.65
2018-07-23T14:12:29.329Z,8.78
2018-07-23T14:17:23.900Z,9.80
2018-07-23T14:22:18.977Z,9.48
2018-07-23T14:27:13.481Z,8.90
2018-07-23T14:32:07.992Z,8.80
2018-07-23T14:37:02.436Z,10.08
2018-07-23T14:41:57.288Z,8.45
2018-07-23T14:46:51.767Z,8.75
2018-07-23T14:51:46.298Z,9.70
2018-07-23T14:56:40.736Z,10.30
2018-07-23T15:01:35.047Z,8.50
2018-07-23T15:06:29.529Z,9.68
2018-07-23T15:11:23.800Z,9.23
2018-07-23T15:16:18.381Z,8.80
2018-07-23T15:21:12.877Z,9.13
2018-07-23T15:26:07.401Z,7.75
2018-07-23T15:31:01.842Z,8.48
2018-07-23T15:35:56.337Z,8.50
2018-07-23T15:40:50.884Z,10.20
2018-07-23T15:45:46.950Z,8.23
2018-07-23T15:50:42.686Z,8.30
2018-07-23T15:55:37.136Z,8.58
2018-07-23T16:00:31.596Z,9.23
2018-07-23T16:05:26.087Z,9.95
2018-07-23T16:10:20.495Z,10.70
2018-07-23T16:15:14.932Z,10.32
2018-07-23T16:20:09.363Z,8.68
2018-07-23T16:25:03.598Z,9.63
2018-07-23T16:29:58.332Z,8.50
2018-07-23T16:34:52.796Z,9.40
2018-07-23T16:39:47.336Z,8.33
2018-07-23T16:44:42.078Z,7.92
2018-07-23T16:49:36.742Z,8.63
2018-07-23T16:54:31.341Z,7.83
2018-07-23T16:59:26.196Z,7.55
2018-07-23T17:04:20.893Z,7.85
2018-07-23T17:09:15.540Z,9.30
2018-07-23T17:14:10.400Z,10.30
2018-07-23T17:19:05.081Z,9.40
2018-07-23T17:23:59.895Z,9.78
2018-07-23T17:28:54.713Z,10.00
2018-07-23T17:33:49.525Z,9.25
2018-07-23T17:38:44.210Z,9.60
2018-07-23T17:43:38.728Z,9.85
2018-07-23T17:48:33.768Z,9.75
2018-07-23T17:53:28.457Z,10.80
2018-07-23T17:58:23.033Z,9.83
2018-07-23T18:03:17.684Z,10.18
2018-07-23T18:08:12.339Z,9.13
2018-07-23T18:13:07.233Z,10.10
2018-07-23T18:18:01.820Z,10.85
2018-07-23T18:22:56.407Z,11.25
2018-07-23T18:27:51.018Z,11.55
2018-07-23T18:32:45.576Z,10.98
2018-07-23T18:37:40.320Z,11.28
2018-07-23T18:42:35.015Z,12.98
2018-07-23T18:47:29.565Z,11.22
2018-07-23T18:52:24.951Z,12.68
2018-07-23T18:57:19.790Z,11.05
2018-07-23T19:02:15.794Z,13.05
2018-07-23T19:07:10.818Z,11.68
2018-07-23T19:12:05.512Z,12.88
2018-07-23T19:17:01.058Z,12.03
2018-07-23T19:21:55.693Z,12.88
2018-07-23T19:26:50.356Z,13.28
2018-07-23T19:31:44.700Z,15.35
2018-07-23T19:36:39.353Z,14.10
2018-07-23T19:41:33.981Z,13.78
2018-07-23T19:46:28.544Z,14.80
2018-07-23T19:51:23.328Z,15.08
2018-07-23T19:56:17.968Z,14.55
2018-07-23T20:01:12.710Z,15.72
2018-07-23T20:06:07.322Z,16.05
2018-07-23T20:11:02.104Z,14.73
2018-07-23T20:15:57.128Z,14.65
2018-07-23T20:20:51.708Z,16.60
2018-07-23T20:25:46.382Z,15.95
2018-07-23T20:30:40.957Z,16.90
2018-07-23T20:35:35.569Z,17.07
2018-07-23T20:40:30.230Z,17.10
2018-07-23T20:45:24.946Z,15.43
2018-07-23T20:50:19.552Z,14.98
2018-07-23T20:55:14.355Z,15.80
2018-07-23T21:00:09.122Z,14.90
2018-07-23T21:05:03.742Z,14.65
2018-07-23T21:09:58.025Z,14.87
2018-07-23T21:14:52.644Z,16.10
2018-07-23T21:19:47.343Z,16.23
2018-07-23T21:24:41.862Z,15.57
2018-07-23T21:29:36.388Z,16.10
2018-07-23T21:34:30.987Z,16.07
2018-07-23T21:39:25.548Z,17.02
2018-07-23T21:44:20.142Z,16.50
2018-07-23T21:49:14.712Z,16.13
2018-07-23T21:54:09.372Z,17.43
2018-07-23T21:59:03.951Z,17.67
2018-07-23T22:03:58.508Z,17.43
2018-07-23T22:08:55.244Z,17.17
2018-07-23T22:13:49.821Z,16.80
2018-07-23T22:18:44.391Z,16.67
2018-07-23T22:23:38.947Z,16.80
2018-07-23T22:28:33.641Z,18.40
2018-07-23T22:33:28.472Z,18.90
2018-07-23T22:38:23.120Z,15.43
2018-07-23T22:43:18.021Z,18.37
2018-07-23T22:48:12.654Z,16.63
2018-07-23T22:53:07.277Z,18.03
2018-07-23T22:58:01.851Z,19.53
2018-07-23T23:02:56.449Z,19.43
2018-07-23T23:07:51.060Z,21.03
2018-07-23T23:12:45.652Z,20.80
2018-07-23T23:17:40.448Z,20.73
2018-07-23T23:22:35.016Z,20.57
2018-07-23T23:27:29.614Z,18.80
2018-07-23T23:32:24.585Z,20.93
2018-07-23T23:37:19.183Z,20.37
2018-07-23T23:42:13.937Z,19.53
2018-07-23T23:47:08.528Z,19.87
2018-07-23T23:52:03.102Z,19.87
2018-07-23T23:56:57.635Z,19.13
